createdAt,value
2023-04-19T00:01:17.524Z,8.68
2023-04-19T00:03:44.921Z,6.75
2023-04-19T00:06:15.179Z,7.45
2023-04-19T00:08:42.454Z,8.77
2023-04-19T00:11:10.193Z,8.60
2023-04-19T00:13:36.784Z,8.95
2023-04-19T00:16:03.627Z,6.57
2023-04-19T00:18:30.211Z,8.65
2023-04-19T00:20:56.911Z,7.05
2023-04-19T00:23:23.759Z,9.30
2023-04-19T00:25:50.392Z,6.28
2023-04-19T00:28:17.169Z,7.22
2023-04-19T00:30:43.841Z,6.15
2023-04-19T00:33:13.088Z,9.52
2023-04-19T00:35:42.966Z,9.45
2023-04-19T00:38:09.684Z,8.15
2023-04-19T00:40:37.900Z,6.57
2023-04-19T00:43:04.600Z,6.53
2023-04-19T00:45:33.300Z,9.68
2023-04-19T00:48:01.533Z,6.57
2023-04-19T00:50:28.972Z,8.80
2023-04-19T00:52:56.307Z,9.00
2023-04-19T00:55:23.563Z,6.28
2023-04-19T00:57:52.301Z,8.02
2023-04-19T01:00:20.075Z,9.20
2023-04-19T01:02:48.012Z,9.20
2023-04-19T01:05:15.110Z,8.38
2023-04-19T01:07:42.652Z,5.95
2023-04-19T01:10:09.921Z,10.15
2023-04-19T01:12:36.623Z,8.38
2023-04-19T01:15:03.626Z,10.38
2023-04-19T01:17:32.384Z,8.43
2023-04-19T01:20:00.744Z,6.40
2023-04-19T01:22:28.323Z,8.70
2023-04-19T01:24:55.057Z,7.13
2023-04-19T01:27:21.925Z,9.00
2023-04-19T01:29:48.515Z,8.60
2023-04-19T01:32:15.301Z,8.68
2023-04-19T01:34:44.939Z,8.70
2023-04-19T01:37:11.548Z,11.88
2023-04-19T01:39:38.220Z,7.68
2023-04-19T01:42:04.992Z,8.15
2023-04-19T01:44:31.693Z,6.45
2023-04-19T01:46:58.355Z,9.15
2023-04-19T01:49:25.073Z,8.48
2023-04-19T01:51:51.776Z,6.00
2023-04-19T01:54:18.480Z,7.30
2023-04-19T01:56:45.138Z,8.18
2023-04-19T01:59:11.761Z,6.80
2023-04-19T02:01:38.421Z,6.07
2023-04-19T02:04:05.210Z,7.88
2023-04-19T02:06:31.988Z,7.13
2023-04-19T02:08:59.053Z,10.43
2023-04-19T02:11:25.721Z,6.82
2023-04-19T02:13:52.444Z,6.20
2023-04-19T02:16:19.124Z,9.27
2023-04-19T02:18:46.837Z,7.63
2023-04-19T02:21:13.772Z,9.07
2023-04-19T02:23:41.618Z,8.93
2023-04-19T02:26:08.229Z,8.77
2023-04-19T02:28:34.884Z,5.95
2023-04-19T02:31:05.190Z,8.52
2023-04-19T02:33:31.863Z,8.38
2023-04-19T02:35:58.480Z,7.30
2023-04-19T02:38:25.096Z,8.00
2023-04-19T02:40:51.797Z,8.57
2023-04-19T02:43:18.453Z,7.70
2023-04-19T02:45:45.087Z,7.75
2023-04-19T02:48:11.795Z,7.72
2023-04-19T02:50:41.159Z,9.82
2023-04-19T02:53:07.816Z,8.73
2023-04-19T02:55:34.462Z,5.88
2023-04-19T02:58:01.130Z,8.73
2023-04-19T03:00:27.743Z,8.00
2023-04-19T03:02:56.254Z,8.27
2023-04-19T03:05:23.654Z,9.80
2023-04-19T03:07:50.422Z,7.80
2023-04-19T03:10:17.325Z,9.13
2023-04-19T03:12:43.992Z,8.60
2023-04-19T03:15:11.278Z,6.95
2023-04-19T03:17:38.131Z,7.47
2023-04-19T03:20:11.850Z,8.25
2023-04-19T03:22:38.761Z,9.90
2023-04-19T03:25:05.892Z,8.77
2023-04-19T03:27:34.964Z,7.90
2023-04-19T03:30:01.666Z,8.13
2023-04-19T03:32:28.365Z,10.65
2023-04-19T03:34:54.971Z,11.10
2023-04-19T03:37:21.612Z,8.90
2023-04-19T03:39:48.152Z,9.13
2023-04-19T03:42:14.908Z,10.90
2023-04-19T03:44:41.496Z,10.98
2023-04-19T03:47:08.233Z,6.80
2023-04-19T03:49:34.877Z,8.57
2023-04-19T03:52:01.449Z,8.95
2023-04-19T03:54:28.090Z,6.20
2023-04-19T03:56:54.641Z,8.30
2023-04-19T03:59:21.300Z,7.75
2023-04-19T04:01:47.912Z,9.82
2023-04-19T04:04:14.934Z,6.93
2023-04-19T04:06:42.413Z,11.35
2023-04-19T04:09:09.205Z,8.23
2023-04-19T04:11:35.858Z,9.25
2023-04-19T04:14:02.442Z,7.22
2023-04-19T04:16:29.069Z,7.57
2023-04-19T04:18:55.873Z,9.70
2023-04-19T04:21:24.278Z,7.60
2023-04-19T04:23:51.582Z,9.90
2023-04-19T04:26:20.151Z,9.55
2023-04-19T04:28:47.178Z,6.57
2023-04-19T04:31:13.851Z,9.02
2023-04-19T04:33:41.744Z,7.75
2023-04-19T04:36:09.936Z,9.73
2023-04-19T04:38:36.982Z,9.50
2023-04-19T04:41:03.641Z,7.70
2023-04-19T04:43:30.287Z,10.52
2023-04-19T04:45:58.179Z,8.60
2023-04-19T04:48:25.455Z,8.48
2023-04-19T04:50:52.052Z,9.05
2023-04-19T04:53:18.749Z,9.98
2023-04-19T04:55:45.370Z,8.68
2023-04-19T04:58:12.012Z,7.38
2023-04-19T05:00:38.633Z,9.40
2023-04-19T05:03:05.490Z,12.50
2023-04-19T05:05:32.277Z,8.85
2023-04-19T05:07:59.260Z,7.63
2023-04-19T05:10:25.914Z,7.35
2023-04-19T05:12:52.628Z,9.18
2023-04-19T05:15:19.327Z,12.85
2023-04-19T05:17:46.082Z,9.75
2023-04-19T05:20:12.873Z,9.60
2023-04-19T05:22:39.583Z,10.98
2023-04-19T05:25:06.905Z,8.35
2023-04-19T05:27:33.553Z,8.10
2023-04-19T05:30:00.264Z,8.20
2023-04-19T05:32:27.566Z,8.80
2023-04-19T05:34:54.222Z,8.07
2023-04-19T05:37:20.782Z,10.05
2023-04-19T05:39:47.398Z,11.48
2023-04-19T05:42:13.982Z,9.98
2023-04-19T05:44:40.774Z,12.02
2023-04-19T05:47:07.427Z,9.00
2023-04-19T05:49:34.001Z,10.40
2023-04-19T05:52:00.678Z,10.50
2023-04-19T05:54:28.170Z,9.43
2023-04-19T05:56:54.731Z,12.45
2023-04-19T05:59:21.267Z,11.52
2023-04-19T06:01:47.932Z,9.85
2023-04-19T06:04:14.997Z,10.25
2023-04-19T06:06:42.034Z,11.30
2023-04-19T06:09:08.694Z,11.90
2023-04-19T06:11:47.110Z,12.20
2023-04-19T06:14:17.426Z,11.00
2023-04-19T06:16:44.528Z,11.13
2023-04-19T06:19:11.235Z,12.85
2023-04-19T06:21:37.931Z,9.05
2023-04-19T06:24:07.141Z,13.70
2023-04-19T06:26:33.886Z,13.90
2023-04-19T06:29:01.235Z,8.88
2023-04-19T06:31:27.975Z,12.63
2023-04-19T06:33:54.653Z,10.55
2023-04-19T06:36:21.231Z,8.63
2023-04-19T06:38:48.039Z,11.73
2023-04-19T06:41:14.817Z,9.90
2023-04-19T06:43:42.876Z,9.75
2023-04-19T06:46:10.033Z,8.85
2023-04-19T06:48:36.857Z,11.50
2023-04-19T06:51:03.596Z,10.13
2023-04-19T06:53:30.326Z,9.93
2023-04-19T06:56:01.778Z,10.75
2023-04-19T06:58:29.169Z,10.88
2023-04-19T07:00:56.272Z,12.32
2023-04-19T07:03:23.082Z,10.82
2023-04-19T07:05:49.905Z,8.95
2023-04-19T07:08:16.488Z,7.90
2023-04-19T07:10:43.963Z,12.55
2023-04-19T07:13:13.661Z,10.20
2023-04-19T07:15:40.325Z,12.63
2023-04-19T07:18:07.370Z,10.50
2023-04-19T07:20:34.311Z,9.98
2023-04-19T07:23:01.079Z,10.07
2023-04-19T07:25:27.902Z,8.10
2023-04-19T07:27:55.659Z,9.48
2023-04-19T07:30:22.481Z,13.50
2023-04-19T07:32:51.622Z,10.75
2023-04-19T07:35:19.513Z,10.65
2023-04-19T07:37:46.475Z,10.30
2023-04-19T07:40:13.455Z,11.63
2023-04-19T07:42:40.269Z,12.93
2023-04-19T07:45:07.481Z,8.60
2023-04-19T07:47:34.194Z,11.18
2023-04-19T07:50:00.862Z,9.63
2023-04-19T07:52:27.499Z,11.25
2023-04-19T07:54:54.188Z,7.70
2023-04-19T07:57:20.769Z,9.13
2023-04-19T07:59:47.355Z,6.60
2023-04-19T08:02:14.112Z,10.68
2023-04-19T08:04:41.323Z,7.82
2023-04-19T08:07:09.513Z,8.63
2023-04-19T08:09:37.977Z,9.80
2023-04-19T08:12:04.738Z,8.45
2023-04-19T08:14:40.363Z,7.63
2023-04-19T08:17:25.616Z,8.18
2023-04-19T08:19:53.800Z,7.07
2023-04-19T08:22:21.630Z,9.32
2023-04-19T08:24:52.053Z,9.82
2023-04-19T08:27:19.262Z,8.48
2023-04-19T08:29:46.534Z,9.55
2023-04-19T08:32:13.581Z,10.48
2023-04-19T08:34:40.694Z,9.45
2023-04-19T08:37:07.379Z,9.10
2023-04-19T08:39:34.996Z,8.80
2023-04-19T08:42:17.708Z,8.43
2023-04-19T08:45:09.531Z,8.82
2023-04-19T08:50:24.219Z,7.40
2023-04-19T08:53:05.200Z,9.57
2023-04-19T08:55:39.835Z,7.95
2023-04-19T08:58:12.309Z,10.98
2023-04-19T09:00:45.718Z,7.90
2023-04-19T09:03:12.631Z,9.00
2023-04-19T09:05:39.464Z,8.45
2023-04-19T09:08:33.539Z,8.60
2023-04-19T09:11:02.072Z,6.57
2023-04-19T09:13:29.997Z,7.55
2023-04-19T09:16:04.890Z,9.32
2023-04-19T09:18:33.204Z,6.22
2023-04-19T09:21:02.510Z,6.40
2023-04-19T09:23:29.173Z,7.00
2023-04-19T09:26:22.811Z,7.25
2023-04-19T09:28:58.189Z,7.28
2023-04-19T09:31:43.440Z,6.43
2023-04-19T09:34:14.862Z,7.05
2023-04-19T09:36:41.848Z,6.53
2023-04-19T09:39:08.734Z,6.15
2023-04-19T09:41:38.975Z,9.77
2023-04-19T09:46:46.513Z,6.68
2023-04-19T09:49:27.979Z,7.45
2023-04-19T09:52:05.493Z,7.68
2023-04-19T09:54:32.862Z,6.90
2023-04-19T09:57:01.673Z,6.53
2023-04-19T09:59:28.558Z,5.72
2023-04-19T10:01:58.494Z,7.70
2023-04-19T10:04:43.635Z,4.90
2023-04-19T10:09:52.993Z,7.28
2023-04-19T10:14:58.550Z,7.18
2023-04-19T10:17:26.021Z,4.90
2023-04-19T10:20:06.919Z,8.25
2023-04-19T10:22:37.853Z,5.72
2023-04-19T10:25:15.814Z,7.00
2023-04-19T10:27:49.244Z,5.82
2023-04-19T10:30:23.375Z,7.05
2023-04-19T10:32:54.196Z,8.13
2023-04-19T10:35:23.074Z,7.05
2023-04-19T10:38:08.722Z,7.22
2023-04-19T10:40:56.540Z,5.88
2023-04-19T10:43:24.834Z,6.22
2023-04-19T10:45:51.972Z,7.13
2023-04-19T10:48:33.065Z,5.88
2023-04-19T10:51:00.725Z,6.57
2023-04-19T10:53:45.563Z,5.85
2023-04-19T10:56:12.540Z,5.32
2023-04-19T10:59:13.340Z,8.73
2023-04-19T11:01:47.089Z,5.57
2023-04-19T11:04:41.407Z,5.32
2023-04-19T11:07:08.161Z,6.50
2023-04-19T11:09:39.555Z,7.15
2023-04-19T11:12:12.235Z,5.53
2023-04-19T11:14:46.839Z,5.45
2023-04-19T11:17:28.353Z,7.03
2023-04-19T11:20:01.034Z,6.32
2023-04-19T11:22:38.205Z,5.20
2023-04-19T11:25:25.175Z,9.55
2023-04-19T11:27:55.762Z,5.90
2023-04-19T11:30:29.182Z,8.13
2023-04-19T11:32:57.374Z,7.32
2023-04-19T11:35:26.335Z,5.97
2023-04-19T11:37:54.780Z,6.32
2023-04-19T11:40:22.566Z,5.47
2023-04-19T11:43:03.120Z,5.30
2023-04-19T11:45:36.609Z,7.38
2023-04-19T11:48:06.248Z,7.43
2023-04-19T11:50:44.495Z,5.85
2023-04-19T11:55:45.738Z,6.63
2023-04-19T11:58:25.693Z,6.53
2023-04-19T12:00:52.443Z,4.60
2023-04-19T12:03:27.140Z,6.78
2023-04-19T12:05:59.653Z,7.22
2023-04-19T12:08:33.369Z,5.88
2023-04-19T12:11:00.597Z,8.80
2023-04-19T12:13:27.232Z,6.20
2023-04-19T12:15:53.922Z,5.95
2023-04-19T12:18:20.568Z,4.65
2023-04-19T12:20:49.166Z,6.78
2023-04-19T12:23:17.456Z,5.93
2023-04-19T12:25:46.606Z,7.47
2023-04-19T12:28:13.918Z,5.50
2023-04-19T12:30:41.529Z,5.47
2023-04-19T12:33:08.963Z,5.07
2023-04-19T12:35:36.336Z,5.88
2023-04-19T12:38:03.528Z,5.43
2023-04-19T12:40:30.731Z,5.90
2023-04-19T12:42:57.754Z,5.85
2023-04-19T12:45:24.471Z,6.63
2023-04-19T12:47:51.206Z,7.78
2023-04-19T12:50:17.895Z,6.00
2023-04-19T12:52:45.562Z,5.70
2023-04-19T12:55:12.452Z,6.20
2023-04-19T12:57:39.347Z,5.65
2023-04-19T13:00:07.351Z,6.85
2023-04-19T13:02:35.325Z,5.00
2023-04-19T13:05:02.487Z,5.10
2023-04-19T13:07:29.189Z,5.38
2023-04-19T13:09:56.965Z,4.80
2023-04-19T13:12:24.133Z,5.00
2023-04-19T13:14:52.535Z,5.30
2023-04-19T13:17:20.245Z,7.90
2023-04-19T13:19:47.544Z,5.95
2023-04-19T13:22:14.657Z,3.95
2023-04-19T13:24:41.300Z,5.07
2023-04-19T13:27:09.123Z,4.25
2023-04-19T13:29:36.174Z,4.10
2023-04-19T13:32:03.273Z,4.63
2023-04-19T13:34:30.040Z,3.88
2023-04-19T13:36:57.665Z,4.18
2023-04-19T13:39:24.343Z,4.50
2023-04-19T13:41:51.367Z,4.03
2023-04-19T13:44:18.366Z,3.30
2023-04-19T13:46:45.183Z,2.95
2023-04-19T13:49:11.899Z,3.45
2023-04-19T13:51:48.968Z,4.10
2023-04-19T13:54:21.256Z,3.83
2023-04-19T13:56:50.549Z,4.15
2023-04-19T13:59:18.878Z,3.65
2023-04-19T14:01:45.944Z,2.63
2023-04-19T14:04:12.985Z,4.05
2023-04-19T14:06:39.732Z,3.33
2023-04-19T14:09:06.835Z,3.15
2023-04-19T14:11:33.956Z,3.42
2023-04-19T14:14:00.724Z,4.97
2023-04-19T14:16:27.482Z,3.45
2023-04-19T14:18:54.173Z,3.85
2023-04-19T14:21:20.942Z,4.53
2023-04-19T14:23:47.601Z,3.38
2023-04-19T14:26:14.750Z,2.63
2023-04-19T14:28:41.455Z,3.42
2023-04-19T14:31:08.196Z,2.92
2023-04-19T14:33:34.862Z,3.20
2023-04-19T14:36:01.632Z,3.17
2023-04-19T14:38:28.239Z,2.10
2023-04-19T14:40:54.881Z,3.25
2023-04-19T14:43:21.479Z,2.90
2023-04-19T14:45:51.915Z,2.20
2023-04-19T14:48:21.410Z,2.80
2023-04-19T14:50:48.821Z,2.50
2023-04-19T14:53:15.769Z,3.45
2023-04-19T14:55:42.387Z,3.53
2023-04-19T14:58:09.052Z,2.70
2023-04-19T15:00:35.805Z,2.35
2023-04-19T15:03:02.580Z,2.40
2023-04-19T15:05:29.444Z,2.17
2023-04-19T15:07:56.083Z,2.55
2023-04-19T15:10:22.762Z,2.28
2023-04-19T15:12:49.330Z,2.70
2023-04-19T15:15:16.200Z,2.40
2023-04-19T15:17:43.276Z,3.35
2023-04-19T15:20:10.323Z,1.85
2023-04-19T15:22:37.012Z,2.28
2023-04-19T15:25:04.126Z,2.50
2023-04-19T15:27:31.389Z,2.67
2023-04-19T15:29:58.086Z,2.35
2023-04-19T15:32:24.787Z,2.53
2023-04-19T15:34:51.703Z,2.85
2023-04-19T15:37:18.513Z,2.35
2023-04-19T15:39:45.267Z,2.53
2023-04-19T15:42:12.055Z,3.08
2023-04-19T15:44:38.674Z,2.92
2023-04-19T15:47:05.502Z,2.47
2023-04-19T15:49:32.065Z,1.90
2023-04-19T15:51:58.652Z,2.15
2023-04-19T15:54:25.650Z,2.15
2023-04-19T15:56:52.228Z,2.85
2023-04-19T15:59:19.014Z,2.15
2023-04-19T16:01:45.679Z,1.95
2023-04-19T16:04:12.607Z,2.13
2023-04-19T16:06:39.458Z,2.70
2023-04-19T16:09:07.686Z,2.40
2023-04-19T16:11:34.245Z,2.83
2023-04-19T16:14:01.240Z,2.40
2023-04-19T16:16:31.105Z,2.88
2023-04-19T16:18:57.901Z,3.05
2023-04-19T16:21:26.231Z,2.55
2023-04-19T16:23:52.796Z,2.42
2023-04-19T16:26:19.403Z,3.25
2023-04-19T16:28:46.840Z,2.65
2023-04-19T16:31:13.429Z,2.55
2023-04-19T16:33:40.091Z,2.05
2023-04-19T16:36:06.703Z,2.95
2023-04-19T16:38:33.359Z,2.53
2023-04-19T16:41:02.189Z,2.40
2023-04-19T16:43:28.816Z,2.28
2023-04-19T16:45:55.403Z,1.85
2023-04-19T16:48:22.159Z,2.78
2023-04-19T16:50:49.421Z,3.25
2023-04-19T16:53:16.411Z,2.83
2023-04-19T16:55:43.097Z,2.75
2023-04-19T16:58:09.708Z,2.55
2023-04-19T17:00:36.301Z,2.80
2023-04-19T17:03:03.129Z,3.13
2023-04-19T17:05:29.880Z,2.72
2023-04-19T17:07:57.070Z,2.60
2023-04-19T17:10:24.634Z,1.85
2023-04-19T17:12:51.269Z,3.10
2023-04-19T17:15:18.985Z,2.40
2023-04-19T17:17:45.712Z,1.88
2023-04-19T17:20:13.473Z,2.58
2023-04-19T17:22:40.112Z,3.17
2023-04-19T17:25:06.933Z,3.08
2023-04-19T17:27:33.550Z,3.30
2023-04-19T17:30:00.219Z,3.72
2023-04-19T17:32:26.849Z,3.40
2023-04-19T17:34:53.516Z,3.65
2023-04-19T17:37:20.999Z,3.47
2023-04-19T17:39:47.535Z,3.55
2023-04-19T17:42:14.154Z,3.45
2023-04-19T17:44:40.919Z,4.03
2023-04-19T17:47:07.538Z,3.03
2023-04-19T17:49:34.252Z,3.15
2023-04-19T17:52:00.810Z,1.83
2023-04-19T17:54:27.448Z,3.60
2023-04-19T17:56:54.571Z,3.75
2023-04-19T17:59:21.273Z,3.30
2023-04-19T18:01:48.066Z,3.75
2023-04-19T18:04:17.952Z,4.82
2023-04-19T18:06:45.123Z,3.30
2023-04-19T18:09:13.210Z,3.70
2023-04-19T18:11:40.346Z,3.92
2023-04-19T18:14:07.038Z,2.80
2023-04-19T18:16:33.736Z,3.35
2023-04-19T18:19:00.389Z,3.35
2023-04-19T18:21:27.317Z,3.35
2023-04-19T18:23:54.843Z,2.83
2023-04-19T18:26:24.300Z,2.63
2023-04-19T18:28:50.915Z,2.60
2023-04-19T18:31:17.591Z,3.90
2023-04-19T18:33:44.219Z,2.67
2023-04-19T18:36:11.207Z,3.25
2023-04-19T18:38:37.887Z,2.83
2023-04-19T18:41:04.515Z,2.50
2023-04-19T18:43:31.651Z,4.80
2023-04-19T18:45:59.217Z,3.15
2023-04-19T18:48:28.181Z,2.92
2023-04-19T18:50:55.281Z,2.85
2023-04-19T18:53:22.031Z,4.03
2023-04-19T18:55:48.807Z,2.72
2023-04-19T18:58:15.503Z,2.83
2023-04-19T19:00:42.262Z,4.53
2023-04-19T19:03:25.214Z,3.05
2023-04-19T19:05:56.466Z,3.85
2023-04-19T19:08:23.391Z,4.43
2023-04-19T19:11:16.363Z,3.63
2023-04-19T19:13:36.716Z,3.67
2023-04-19T19:16:05.657Z,3.92
2023-04-19T19:18:32.617Z,2.70
2023-04-19T19:21:03.231Z,3.88
2023-04-19T19:23:35.730Z,3.30
2023-04-19T19:26:04.011Z,4.85
2023-04-19T19:28:30.638Z,5.57
2023-04-19T19:30:57.283Z,4.80
2023-04-19T19:33:24.037Z,4.38
2023-04-19T19:35:50.776Z,3.72
2023-04-19T19:38:17.365Z,3.90
2023-04-19T19:41:20.699Z,2.55
2023-04-19T19:43:30.650Z,2.90
2023-04-19T19:45:57.286Z,3.22
2023-04-19T19:48:25.357Z,2.78
2023-04-19T19:53:21.742Z,2.92
2023-04-19T19:55:48.355Z,3.50
2023-04-19T19:58:42.965Z,4.78
2023-04-19T20:01:03.374Z,3.35
2023-04-19T20:03:37.465Z,4.05
2023-04-19T20:08:40.126Z,5.18
2023-04-19T20:11:09.464Z,4.07
2023-04-19T20:13:36.694Z,4.05
2023-04-19T20:16:03.524Z,3.40
2023-04-19T20:18:30.413Z,3.35
2023-04-19T20:20:57.912Z,3.85
2023-04-19T20:23:24.836Z,3.97
2023-04-19T20:25:52.057Z,3.92
2023-04-19T20:28:18.827Z,4.47
2023-04-19T20:30:45.687Z,3.45
2023-04-19T20:33:12.387Z,3.80
2023-04-19T20:35:39.126Z,4.45
2023-04-19T20:38:07.774Z,2.85
2023-04-19T20:40:34.458Z,3.33
2023-04-19T20:43:01.152Z,3.47
2023-04-19T20:45:27.883Z,4.15
2023-04-19T20:47:55.729Z,3.20
2023-04-19T20:50:22.539Z,3.17
2023-04-19T20:52:49.469Z,3.53
2023-04-19T20:55:16.529Z,3.17
2023-04-19T20:57:43.255Z,3.35
2023-04-19T21:00:10.609Z,4.20
2023-04-19T21:02:38.040Z,2.42
2023-04-19T21:05:05.052Z,3.53
2023-04-19T21:07:31.674Z,2.70
2023-04-19T21:09:58.254Z,4.18
2023-04-19T21:12:24.859Z,3.15
2023-04-19T21:14:52.856Z,3.05
2023-04-19T21:17:20.413Z,3.35
2023-04-19T21:19:47.121Z,4.80
2023-04-19T21:22:13.689Z,4.05
2023-04-19T21:24:40.319Z,5.32
2023-04-19T21:27:06.989Z,4.22
2023-04-19T21:29:33.813Z,3.90
2023-04-19T21:32:00.472Z,4.40
2023-04-19T21:34:27.274Z,3.55
2023-04-19T21:36:53.961Z,3.55
2023-04-19T21:39:20.704Z,3.72
2023-04-19T21:41:47.410Z,2.95
2023-04-19T21:44:14.083Z,4.07
2023-04-19T21:46:40.961Z,4.47
2023-04-19T21:49:07.588Z,3.05
2023-04-19T21:51:34.226Z,2.95
2023-04-19T21:54:00.822Z,4.03
2023-04-19T21:56:27.590Z,3.38
2023-04-19T21:58:54.265Z,3.35
2023-04-19T22:01:21.052Z,3.85
2023-04-19T22:03:48.076Z,3.38
2023-04-19T22:06:17.198Z,2.97
2023-04-19T22:08:44.057Z,2.80
2023-04-19T22:11:12.073Z,3.08
2023-04-19T22:13:38.798Z,3.97
2023-04-19T22:16:05.944Z,2.97
2023-04-19T22:18:34.658Z,4.40
2023-04-19T22:21:01.501Z,3.47
2023-04-19T22:23:28.068Z,2.88
2023-04-19T22:25:54.829Z,2.80
2023-04-19T22:28:21.552Z,3.15
2023-04-19T22:30:48.350Z,4.03
2023-04-19T22:33:14.977Z,2.85
2023-04-19T22:35:41.667Z,3.00
2023-04-19T22:38:08.288Z,2.75
2023-04-19T22:40:34.899Z,2.10
2023-04-19T22:43:01.745Z,2.97
2023-04-19T22:45:28.458Z,2.50
2023-04-19T22:47:55.148Z,2.90
2023-04-19T22:50:23.630Z,3.08
2023-04-19T22:52:50.870Z,2.40
2023-04-19T22:55:17.634Z,3.10
2023-04-19T22:57:44.343Z,3.10
2023-04-19T23:00:11.527Z,4.00
2023-04-19T23:02:39.093Z,2.10
2023-04-19T23:05:06.492Z,2.80
2023-04-19T23:07:33.315Z,2.45
2023-04-19T23:10:01.029Z,2.80
2023-04-19T23:12:27.718Z,2.53
2023-04-19T23:14:55.269Z,2.30
2023-04-19T23:17:21.891Z,2.85
2023-04-19T23:19:48.511Z,2.50
2023-04-19T23:22:15.230Z,3.80
2023-04-19T23:24:41.813Z,2.65
2023-04-19T23:27:08.533Z,3.90
2023-04-19T23:29:35.228Z,2.80
2023-04-19T23:32:02.114Z,2.58
2023-04-19T23:34:28.725Z,2.53
2023-04-19T23:36:56.799Z,3.25
2023-04-19T23:39:23.464Z,2.83
2023-04-19T23:41:50.384Z,2.45
2023-04-19T23:44:17.078Z,2.67
2023-04-19T23:46:43.883Z,3.25
2023-04-19T23:49:10.625Z,2.92
2023-04-19T23:51:37.463Z,2.20
2023-04-19T23:54:04.289Z,1.83
2023-04-19T23:56:31.189Z,2.30
2023-04-19T23:58:57.846Z,2.53
